39.3°F
Current conditions from King Hill
Updated every 5 minutes
 
  Friday October 24, 2014

Station Historical Data
Daily Summary for May 16, 2012 Units:  Metric    English   Both
« Previous Day
Next Day »
Daily Weekly Monthly Yearly Custom
  High: Low: Average:
Temperature: 24.1 °C 11.9 °C 16.3 °C
Dew Point: 17.4 °C 6.6 °C 13.7 °C
Humidity: 96% 52% 85%
Wind Speed: 17.7km/h 0km/h 6.1km/h
Wind Gust: 37km/h - -
Wind- - SW
Pressure: 1011.4 hPa 1004.6 hPa -
Precipitation: 12.7 mm    
Historical Graphs
 
 
Tabular Data for May 16, 2012
Time Temperature Dew Point Pressure Wind Wind Speed Wind Gust Humidity Daily Rainfall
00:04 13.1 °C 12.1 °C 1011.4 hPa Calm     94% 0 mm
00:09 13 °C 12.1 °C 1011.4 hPa Calm     94% 0 mm
00:14 13 °C 12.1 °C 1011.4 hPa Calm     94% 0 mm
00:19 13.2 °C 12.4 °C 1011.4 hPa SSW 1.6 km/h 6.4 km/h 95% 0 mm
00:25 13.3 °C 12.6 °C 1011.4 hPa Calm   6.4 km/h 95% 0 mm
00:35 13.6 °C 12.8 °C 1011.4 hPa Calm   1.6 km/h 95% 0 mm
00:44 13.6 °C 12.8 °C 1011.1 hPa Calm   11.3 km/h 95% 0 mm
00:49 13.6 °C 12.8 °C 1011.1 hPa Calm   4.8 km/h 95% 0 mm
00:54 13.6 °C 12.8 °C 1011.1 hPa Calm   4.8 km/h 95% 0 mm
00:59 13.6 °C 12.8 °C 1011.1 hPa Calm     95% 0 mm
01:04 13.6 °C 12.8 °C 1011.1 hPa Calm     95% 0 mm
01:09 13.8 °C 13 °C 1011.1 hPa Calm   8 km/h 95% 0 mm
01:14 13.8 °C 13.1 °C 1011.1 hPa Calm   8 km/h 95% 0 mm
01:19 13.8 °C 13.1 °C 1011.1 hPa Calm   8 km/h 95% 0 mm
01:25 13.8 °C 13.1 °C 1011.1 hPa SSW 1.6 km/h 8 km/h 95% 0 mm
01:34 13.8 °C 13 °C 1011.1 hPa Calm   4.8 km/h 95% 0 mm
01:39 13.7 °C 12.9 °C 1011.1 hPa Calm   6.4 km/h 95% 0 mm
01:49 13.7 °C 12.9 °C 1011.1 hPa Calm     95% 0 mm
01:54 13.7 °C 12.9 °C 1011.1 hPa SSW 1.6 km/h 9.7 km/h 95% 0 mm
01:59 13.7 °C 12.9 °C 1011.1 hPa SW 1.6 km/h 9.7 km/h 95% 0 mm
02:04 13.7 °C 12.9 °C 1010.7 hPa Calm   6.4 km/h 95% 0 mm
02:09 13.7 °C 12.9 °C 1010.7 hPa Calm   6.4 km/h 95% 0 mm
02:14 13.7 °C 12.9 °C 1010.4 hPa Calm   6.4 km/h 95% 0 mm
02:19 13.6 °C 12.8 °C 1010.4 hPa Calm   8 km/h 95% 0 mm
02:24 13.6 °C 12.8 °C 1010.4 hPa Calm   8 km/h 95% 0 mm
02:29 13.7 °C 12.9 °C 1010.4 hPa SW 1.6 km/h 6.4 km/h 95% 0 mm
02:34 13.6 °C 12.8 °C 1010 hPa Calm   6.4 km/h 95% 0 mm
02:39 13.6 °C 12.8 °C 1010 hPa SSW 1.6 km/h 8 km/h 95% 0 mm
02:44 13.6 °C 12.8 °C 1010 hPa SSW 3.2 km/h 9.7 km/h 95% 0 mm
02:50 13.7 °C 12.9 °C 1010 hPa SSW 4.8 km/h 11.3 km/h 95% 0 mm
02:59 13.6 °C 12.8 °C 1010 hPa Calm   11.3 km/h 95% 0 mm
03:04 13.5 °C 12.7 °C 1010 hPa Calm   6.4 km/h 95% 0 mm
03:09 13.5 °C 12.7 °C 1010 hPa SSW 1.6 km/h 11.3 km/h 95% 0 mm
03:14 13.5 °C 12.7 °C 1010 hPa SSW 1.6 km/h 11.3 km/h 95% 0.3 mm
03:19 13.6 °C 12.8 °C 1010 hPa SW 1.6 km/h 9.7 km/h 95% 0.3 mm
03:24 13.6 °C 12.8 °C 1010 hPa SSW 1.6 km/h 9.7 km/h 95% 0.3 mm
03:30 13.6 °C 12.8 °C 1010 hPa SSW 1.6 km/h 11.3 km/h 95% 0.3 mm
03:39 13.6 °C 12.8 °C 1010 hPa SSW 4.8 km/h 11.3 km/h 95% 0.3 mm
03:44 13.6 °C 12.8 °C 1009.7 hPa SSW 3.2 km/h 11.3 km/h 95% 0.3 mm
03:49 13.5 °C 12.7 °C 1009.7 hPa SW 4.8 km/h 11.3 km/h 95% 0.3 mm
03:54 13.6 °C 12.8 °C 1010 hPa SSW 3.2 km/h 12.9 km/h 95% 0.3 mm
03:59 13.6 °C 12.8 °C 1009.7 hPa SSW 4.8 km/h 12.9 km/h 95% 0.3 mm
04:04 13.6 °C 12.8 °C 1010 hPa SSW 1.6 km/h 12.9 km/h 95% 0.3 mm
04:09 13.6 °C 12.8 °C 1010 hPa SSW 3.2 km/h 11.3 km/h 95% 0.3 mm
04:14 13.6 °C 12.8 °C 1010 hPa SSW 1.6 km/h 11.3 km/h 95% 0.3 mm
04:19 13.7 °C 12.9 °C 1010 hPa SSW 3.2 km/h 12.9 km/h 95% 0.3 mm
04:24 13.6 °C 12.8 °C 1010 hPa SW 1.6 km/h 12.9 km/h 95% 0.3 mm
04:29 13.6 °C 12.8 °C 1010 hPa Calm   16.1 km/h 95% 0.3 mm
04:34 13.6 °C 12.8 °C 1010 hPa SSW 3.2 km/h 16.1 km/h 95% 0.3 mm
04:39 13.6 °C 12.8 °C 1010 hPa SSW 1.6 km/h 11.3 km/h 95% 0.3 mm
04:44 13.6 °C 12.8 °C 1010 hPa SW 1.6 km/h 9.7 km/h 95% 0.3 mm
04:49 13.6 °C 12.8 °C 1010 hPa SSW 1.6 km/h 9.7 km/h 95% 0.3 mm
04:54 13.5 °C 12.7 °C 1010 hPa Calm   9.7 km/h 95% 0.3 mm
04:59 13.5 °C 12.7 °C 1010 hPa SSW 3.2 km/h 11.3 km/h 95% 0.3 mm
05:04 13.6 °C 12.8 °C 1010 hPa SSW 3.2 km/h 11.3 km/h 95% 0.3 mm
05:09 13.6 °C 12.8 °C 1010 hPa Calm   9.7 km/h 95% 0.3 mm
05:14 13.6 °C 12.8 °C 1009.7 hPa Calm   9.7 km/h 95% 0.3 mm
05:19 13.5 °C 12.7 °C 1009.7 hPa Calm   1.6 km/h 95% 0.3 mm
05:24 13.5 °C 12.7 °C 1010 hPa SSW 1.6 km/h 9.7 km/h 95% 0.3 mm
05:29 13.5 °C 12.7 °C 1010 hPa SSW 4.8 km/h 9.7 km/h 95% 0.3 mm
05:34 13.6 °C 13 °C 1010 hPa SSW 1.6 km/h 11.3 km/h 96% 0.3 mm
05:39 13.7 °C 13.1 °C 1010 hPa SSW 3.2 km/h 11.3 km/h 96% 0.3 mm
05:44 13.8 °C 13 °C 1010 hPa Calm   11.3 km/h 95% 0.3 mm
05:50 13.8 °C 13.2 °C 1010 hPa SSW 4.8 km/h 11.3 km/h 96% 0.3 mm
05:59 14 °C 13.4 °C 1010 hPa SSW 6.4 km/h 12.9 km/h 96% 0.3 mm
06:04 14.1 °C 13.4 °C 1009.7 hPa Calm   12.9 km/h 96% 0.3 mm
06:09 14.1 °C 13.3 °C 1010 hPa Calm   11.3 km/h 95% 0.3 mm
06:14 14.2 °C 13.4 °C 1009.7 hPa SSW 1.6 km/h 12.9 km/h 95% 0.3 mm
06:20 14.2 °C 13.4 °C 1009.7 hPa SSW 1.6 km/h 12.9 km/h 95% 0.3 mm
06:29 14.3 °C 13.5 °C 1009.7 hPa SSW 1.6 km/h 11.3 km/h 95% 0.3 mm
06:34 14.3 °C 13.6 °C 1009.7 hPa SSW 1.6 km/h 11.3 km/h 95% 0.3 mm
06:40 14.3 °C 13.6 °C 1009.7 hPa Calm   8 km/h 95% 0.3 mm
06:50 14.4 °C 13.7 °C 1010 hPa SW 3.2 km/h 12.9 km/h 95% 0.3 mm
06:55 14.5 °C 13.7 °C 1010 hPa SSW 1.6 km/h 12.9 km/h 95% 0.3 mm
07:00 14.6 °C 13.8 °C 1010 hPa SSW 3.2 km/h 12.9 km/h 95% 0.3 mm
07:09 14.7 °C 13.9 °C 1010 hPa SW 4.8 km/h 11.3 km/h 95% 0.3 mm
07:14 14.7 °C 13.9 °C 1010 hPa SSW 3.2 km/h 11.3 km/h 95% 0.3 mm
07:19 14.8 °C 13.8 °C 1009.7 hPa SSW 4.8 km/h 14.5 km/h 94% 0.3 mm
07:24 14.8 °C 13.9 °C 1009.7 hPa SSW 4.8 km/h 14.5 km/h 94% 0.3 mm
07:29 14.9 °C 13.9 °C 1010 hPa SSW 3.2 km/h 12.9 km/h 94% 0.3 mm
07:34 15 °C 14.1 °C 1010 hPa SSW 1.6 km/h 12.9 km/h 94% 0.3 mm
07:40 15 °C 14.1 °C 1010 hPa SSW 1.6 km/h 11.3 km/h 94% 0.3 mm
07:44 15.2 °C 14.2 °C 1009.7 hPa SSW 9.7 km/h 17.7 km/h 94% 0.3 mm
07:49 15.3 °C 14.2 °C 1009.7 hPa SSW 8 km/h 17.7 km/h 93% 0.3 mm
07:54 15.4 °C 14.2 °C 1009.7 hPa SSW 3.2 km/h 14.5 km/h 92% 0.3 mm
07:59 15.5 °C 14.2 °C 1009.7 hPa SSW 6.4 km/h 17.7 km/h 92% 0.3 mm
08:04 15.6 °C 14.2 °C 1009.7 hPa SSW 11.3 km/h 19.3 km/h 91% 0.3 mm
08:09 15.7 °C 14.2 °C 1010 hPa SSW 3.2 km/h 19.3 km/h 91% 0.3 mm
08:14 15.7 °C 14.1 °C 1009.7 hPa SSW 8 km/h 19.3 km/h 90% 0.3 mm
08:19 15.8 °C 14.2 °C 1009.7 hPa SSW 6.4 km/h 19.3 km/h 90% 0.3 mm
08:25 15.8 °C 14.2 °C 1009.7 hPa SSW 4.8 km/h 19.3 km/h 90% 0.3 mm
08:34 16.1 °C 14.6 °C 1010 hPa SSW 8 km/h 17.7 km/h 91% 0.3 mm
08:39 16.3 °C 14.6 °C 1010 hPa SSW 8 km/h 17.7 km/h 90% 0.3 mm
08:44 16.4 °C 14.6 °C 1010 hPa SSW 8 km/h 19.3 km/h 89% 0.3 mm
08:49 16.7 °C 14.9 °C 1009.7 hPa SSW 4.8 km/h 19.3 km/h 89% 0.3 mm
08:54 16.9 °C 14.9 °C 1009.7 hPa SSW 8 km/h 19.3 km/h 88% 0.3 mm
08:59 17.2 °C 15.2 °C 1009.7 hPa South 6.4 km/h 20.9 km/h 88% 0.3 mm
09:04 17.3 °C 15.2 °C 1009.7 hPa SSW 1.6 km/h 20.9 km/h 87% 0.3 mm
09:09 17.5 °C 15.3 °C 1009.7 hPa SSW 3.2 km/h 16.1 km/h 87% 0.3 mm
09:14 17.6 °C 15.1 °C 1009.7 hPa South 6.4 km/h 16.1 km/h 85% 0.3 mm
09:19 17.6 °C 15 °C 1009.4 hPa SSW 3.2 km/h 14.5 km/h 85% 0.3 mm
09:24 17.7 °C 15.2 °C 1009.4 hPa SSW 3.2 km/h 12.9 km/h 85% 0.3 mm
09:29 17.7 °C 14.9 °C 1009.4 hPa SSW 11.3 km/h 20.9 km/h 84% 0.3 mm
09:34 17.7 °C 15.2 °C 1009 hPa South 3.2 km/h 20.9 km/h 85% 0.3 mm
09:40 17.7 °C 15.2 °C 1009 hPa SSE 1.6 km/h 16.1 km/h 85% 0.3 mm
09:49 18.1 °C 15.6 °C 1009 hPa SSW 4.8 km/h 16.1 km/h 85% 0.3 mm
09:54 18.6 °C 15.8 °C 1009 hPa Calm   16.1 km/h 84% 0.3 mm
09:59 18.7 °C 15.3 °C 1008.7 hPa SSW 11.3 km/h 22.5 km/h 81% 0.3 mm
10:04 18.8 °C 15.9 °C 1008.7 hPa SSW 8 km/h 25.7 km/h 83% 0.3 mm
10:09 18.9 °C 15.6 °C 1008.7 hPa SSW 11.3 km/h 25.7 km/h 81% 0.3 mm
10:14 19.2 °C 15.7 °C 1009 hPa SSW 9.7 km/h 19.3 km/h 80% 0.3 mm
10:19 19.1 °C 15.6 °C 1009 hPa SSW 8 km/h 19.3 km/h 80% 0.3 mm
10:24 19.4 °C 15.8 °C 1008.7 hPa SSW 1.6 km/h 19.3 km/h 80% 0.3 mm
10:29 19.7 °C 16.1 °C 1008.7 hPa SSW 6.4 km/h 24.1 km/h 80% 0.3 mm
10:34 20 °C 16.3 °C 1008.7 hPa SSW 11.3 km/h 24.1 km/h 79% 0.3 mm
10:44 20.2 °C 15.8 °C 1008.7 hPa SSW 8 km/h 24.1 km/h 76% 0.3 mm
10:49 20.3 °C 15.9 °C 1008.4 hPa SSW 6.4 km/h 24.1 km/h 76% 0.3 mm
10:54 20.2 °C 15.7 °C 1008.4 hPa SW 12.9 km/h 25.7 km/h 75% 0.3 mm
10:59 20.3 °C 15.9 °C 1008.4 hPa SSW 8 km/h 29 km/h 76% 0.3 mm
11:04 20.3 °C 15.6 °C 1008.4 hPa South 8 km/h 29 km/h 74% 0.3 mm
11:09 20.7 °C 15.4 °C 1008.4 hPa SW 9.7 km/h 24.1 km/h 72% 0.3 mm
11:14 20.9 °C 15.2 °C 1008.4 hPa SSW 11.3 km/h 24.1 km/h 70% 0.3 mm
11:19 21.1 °C 16.1 °C 1008.4 hPa SW 8 km/h 25.7 km/h 73% 0.3 mm
11:24 21.1 °C 15.9 °C 1008.4 hPa SW 11.3 km/h 25.7 km/h 72% 0.3 mm
11:29 21.2 °C 15.7 °C 1008.4 hPa SSW 11.3 km/h 25.7 km/h 71% 0.3 mm
11:34 21.3 °C 16.1 °C 1008 hPa SW 6.4 km/h 24.1 km/h 72% 0.3 mm
11:39 21.2 °C 15.9 °C 1007.7 hPa SW 9.7 km/h 29 km/h 72% 0.3 mm
11:44 21.2 °C 15.8 °C 1007.7 hPa SSW 6.4 km/h 29 km/h 71% 0.3 mm
11:49 21.2 °C 15.8 °C 1007.7 hPa SW 9.7 km/h 27.4 km/h 71% 0.3 mm
11:54 21.4 °C 15.9 °C 1007.7 hPa SW 6.4 km/h 22.5 km/h 71% 0.3 mm
11:59 21.8 °C 16.1 °C 1007.7 hPa SW 9.7 km/h 27.4 km/h 70% 0.3 mm
12:04 21.8 °C 16.6 °C 1007.7 hPa WSW 8 km/h 27.4 km/h 72% 0.3 mm
12:09 21.8 °C 16.1 °C 1007.7 hPa SW 12.9 km/h 20.9 km/h 70% 0.3 mm
12:14 21.8 °C 16.3 °C 1007.3 hPa SSW 8 km/h 22.5 km/h 71% 0.3 mm
12:19 21.8 °C 16.6 °C 1007.3 hPa SW 8 km/h 22.5 km/h 72% 0.3 mm
12:24 21.9 °C 16.2 °C 1007.3 hPa SSW 8 km/h 25.7 km/h 70% 0.3 mm
12:29 22.1 °C 17 °C 1007.3 hPa SW 8 km/h 25.7 km/h 73% 0.3 mm
12:34 22 °C 16.9 °C 1007 hPa SSW 4.8 km/h 22.5 km/h 73% 0.3 mm
12:39 22.2 °C 16.3 °C 1007 hPa SSW 12.9 km/h 27.4 km/h 69% 0.3 mm
12:44 22.3 °C 16.6 °C 1007 hPa SW 11.3 km/h 27.4 km/h 70% 0.3 mm
12:49 22.3 °C 16.8 °C 1006.7 hPa SW 8 km/h 24.1 km/h 71% 0.3 mm
12:55 22.1 °C 16.4 °C 1007 hPa SW 12.9 km/h 25.7 km/h 70% 0.3 mm
13:04 22.2 °C 17.4 °C 1006.7 hPa SW 3.2 km/h 25.7 km/h 74% 0.3 mm
13:09 22.2 °C 16.1 °C 1006.7 hPa SSW 17.7 km/h 29 km/h 68% 0.3 mm
13:14 22.2 °C 16 °C 1006.7 hPa SSW 16.1 km/h 29 km/h 68% 0.3 mm
13:19 22.1 °C 16.4 °C 1006.7 hPa SSW 9.7 km/h 37 km/h 70% 0.3 mm
13:24 22.2 °C 16.4 °C 1006.3 hPa SSW 12.9 km/h 37 km/h 70% 0.3 mm
13:29 22.2 °C 16.3 °C 1006.3 hPa SSW 4.8 km/h 27.4 km/h 69% 0.3 mm
13:34 22.4 °C 16.3 °C 1006 hPa SSW 11.3 km/h 25.7 km/h 68% 0.3 mm
13:39 22.5 °C 16.3 °C 1006 hPa SSW 8 km/h 24.1 km/h 68% 0.3 mm
13:44 22.8 °C 16.3 °C 1006 hPa South 9.7 km/h 29 km/h 67% 0.3 mm
13:50 23.1 °C 15.6 °C 1005.6 hPa SSW 9.7 km/h 29 km/h 63% 0.3 mm
13:55 23.1 °C 15.1 °C 1005.3 hPa SSW 9.7 km/h 25.7 km/h 61% 0.3 mm
14:04 23.3 °C 15.1 °C 1005.3 hPa South 12.9 km/h 30.6 km/h 60% 0.3 mm
14:09 23.4 °C 15 °C 1005 hPa SSW 11.3 km/h 30.6 km/h 59% 0.3 mm
14:14 23.8 °C 15.6 °C 1005 hPa SSW 8 km/h 24.1 km/h 60% 0.3 mm
14:19 24 °C 15.2 °C 1005 hPa SSW 8 km/h 22.5 km/h 58% 0.3 mm
14:24 24.1 °C 15.3 °C 1005 hPa South 4.8 km/h 24.1 km/h 58% 0.3 mm
14:29 23.9 °C 14.4 °C 1004.6 hPa SSW 9.7 km/h 24.1 km/h 55% 0.3 mm
14:34 22.9 °C 12.9 °C 1004.6 hPa SSW 11.3 km/h 25.7 km/h 53% 0.3 mm
14:39 22.4 °C 13.2 °C 1005 hPa Calm   25.7 km/h 56% 0.3 mm
14:44 22.2 °C 12.5 °C 1005 hPa SW 6.4 km/h 19.3 km/h 54% 0.3 mm
14:49 21.9 °C 12.8 °C 1005.3 hPa SW 3.2 km/h 20.9 km/h 56% 0.3 mm
14:55 21.7 °C 11.4 °C 1005.6 hPa SW 11.3 km/h 25.7 km/h 52% 0.3 mm
15:04 21.4 °C 13.1 °C 1006 hPa WNW 12.9 km/h 22.5 km/h 59% 0.3 mm
15:09 20.3 °C 13.8 °C 1006 hPa West 11.3 km/h 27.4 km/h 66% 0.3 mm
15:14 19.5 °C 14.3 °C 1006.3 hPa West 12.9 km/h 27.4 km/h 72% 0.5 mm
15:19 18.8 °C 14.7 °C 1006.7 hPa WSW 11.3 km/h 25.7 km/h 77% 0.5 mm
15:24 18.2 °C 14.7 °C 1006.7 hPa West 12.9 km/h 29 km/h 80% 1.5 mm
15:29 17.5 °C 13.6 °C 1005.6 hPa Calm   29 km/h 78% 3.6 mm
15:35 17.1 °C 13.8 °C 1005.3 hPa Calm   29 km/h 81% 3.6 mm
15:44 16.6 °C 14 °C 1005.3 hPa Calm   1.6 km/h 85% 3.6 mm
15:49 16.3 °C 14.2 °C 1005.3 hPa Calm     87% 3.6 mm
15:54 16.2 °C 14 °C 1005.3 hPa Calm   3.2 km/h 87% 3.6 mm
15:59 16.2 °C 14.2 °C 1005.6 hPa Calm   3.2 km/h 88% 3.6 mm
16:04 16.2 °C 14.3 °C 1006 hPa WSW 4.8 km/h 9.7 km/h 89% 3.6 mm
16:09 16.2 °C 14.5 °C 1007 hPa NW 14.5 km/h 22.5 km/h 90% 3.6 mm
16:15 16.1 °C 14.1 °C 1006.7 hPa NW 9.7 km/h 27.4 km/h 88% 3.6 mm
16:24 15.9 °C 13.9 °C 1007 hPa NW 11.3 km/h 22.5 km/h 88% 3.6 mm
16:29 15.7 °C 13.7 °C 1007 hPa NW 8 km/h 22.5 km/h 88% 3.8 mm
16:39 15.2 °C 13.2 °C 1007 hPa West 4.8 km/h 17.7 km/h 88% 3.8 mm
16:44 15 °C 13.2 °C 1007.3 hPa WNW 1.6 km/h 9.7 km/h 89% 5.1 mm
16:49 15 °C 13.2 °C 1007.7 hPa WNW 6.4 km/h 14.5 km/h 89% 6.9 mm
16:54 15 °C 13.2 °C 1008 hPa WNW 4.8 km/h 14.5 km/h 89% 10.2 mm
16:59 14.9 °C 13.1 °C 1008 hPa WNW 6.4 km/h 12.9 km/h 89% 11.7 mm
17:04 14.9 °C 13.1 °C 1007.7 hPa Calm   12.9 km/h 89% 12.2 mm
17:09 14.8 °C 13.1 °C 1007.3 hPa Calm   8 km/h 89% 12.7 mm
17:14 14.9 °C 13.3 °C 1007.7 hPa Calm   1.6 km/h 90% 12.7 mm
17:19 15.2 °C 13.9 °C 1007.7 hPa WNW 3.2 km/h 6.4 km/h 92% 12.7 mm
17:24 15.4 °C 14.2 °C 1007.3 hPa ESE 3.2 km/h 6.4 km/h 92% 12.7 mm
17:29 15.6 °C 14.3 °C 1007.3 hPa ESE 3.2 km/h 6.4 km/h 92% 12.7 mm
17:39 15.7 °C 14.4 °C 1007.3 hPa Calm   8 km/h 92% 12.7 mm
17:44 15.7 °C 14.3 °C 1007 hPa Calm   9.7 km/h 91% 12.7 mm
17:49 16.2 °C 14.7 °C 1007 hPa Calm   9.7 km/h 91% 12.7 mm
17:54 16.7 °C 15.2 °C 1007 hPa Calm   3.2 km/h 91% 12.7 mm
17:59 16.9 °C 14.9 °C 1007 hPa Calm   3.2 km/h 88% 12.7 mm
18:04 16.9 °C 14.6 °C 1007 hPa Calm   1.6 km/h 86% 12.7 mm
18:09 17.1 °C 14.7 °C 1007 hPa Calm     86% 12.7 mm
18:14 17.2 °C 15 °C 1006.7 hPa Calm     87% 12.7 mm
18:19 17.2 °C 15.1 °C 1007 hPa Calm     87% 12.7 mm
18:24 17.2 °C 14.7 °C 1007 hPa Calm     85% 12.7 mm
18:34 17.5 °C 14.4 °C 1006.7 hPa Calm   4.8 km/h 82% 12.7 mm
18:39 17.6 °C 15 °C 1007 hPa Calm   4.8 km/h 85% 12.7 mm
18:44 17.3 °C 14.9 °C 1006.7 hPa Calm     86% 12.7 mm
18:49 17.3 °C 15.3 °C 1007 hPa Calm     88% 12.7 mm
18:54 17.2 °C 15 °C 1006.7 hPa Calm     87% 12.7 mm
18:59 17.1 °C 14.8 °C 1006.7 hPa Calm     86% 12.7 mm
19:04 17.1 °C 14.9 °C 1006.7 hPa Calm     87% 12.7 mm
19:09 17.2 °C 15 °C 1006.7 hPa Calm   1.6 km/h 87% 12.7 mm
19:14 17.1 °C 14.8 °C 1006.7 hPa SSW 1.6 km/h 4.8 km/h 86% 12.7 mm
19:19 17.1 °C 14.7 °C 1007 hPa Calm   4.8 km/h 86% 12.7 mm
19:24 17 °C 14.7 °C 1006.7 hPa Calm   1.6 km/h 86% 12.7 mm
19:29 16.9 °C 14.7 °C 1006.7 hPa Calm   1.6 km/h 87% 12.7 mm
19:34 16.8 °C 14.7 °C 1006.7 hPa SSW 1.6 km/h 6.4 km/h 87% 12.7 mm
19:39 16.6 °C 14.4 °C 1006.7 hPa SSW 1.6 km/h 6.4 km/h 87% 12.7 mm
19:44 16.4 °C 14.2 °C 1006.7 hPa Calm   4.8 km/h 87% 12.7 mm
19:49 16.2 °C 14 °C 1006.7 hPa SSW 1.6 km/h 6.4 km/h 87% 12.7 mm
19:54 15.9 °C 13.9 °C 1006.7 hPa Calm   6.4 km/h 88% 12.7 mm
19:59 15.8 °C 13.8 °C 1006.7 hPa SSW 4.8 km/h 6.4 km/h 88% 12.7 mm
20:04 15.7 °C 13.8 °C 1006.7 hPa SSW 3.2 km/h 6.4 km/h 89% 12.7 mm
20:09 15.4 °C 13.7 °C 1006.7 hPa SSW 3.2 km/h 6.4 km/h 89% 12.7 mm
20:14 15.3 °C 13.5 °C 1006.7 hPa SSW 1.6 km/h 6.4 km/h 89% 12.7 mm
20:19 15.1 °C 13.3 °C 1006.7 hPa SSW 1.6 km/h 6.4 km/h 89% 12.7 mm
20:24 15 °C 13.2 °C 1006.7 hPa SSW 1.6 km/h 4.8 km/h 89% 12.7 mm
20:30 14.8 °C 13.2 °C 1006.7 hPa Calm   4.8 km/h 90% 12.7 mm
20:40 14.4 °C 12.8 °C 1006.7 hPa SSW 3.2 km/h 4.8 km/h 90% 12.7 mm
20:49 14 °C 12.4 °C 1007 hPa Calm   3.2 km/h 90% 12.7 mm
20:54 13.8 °C 12.2 °C 1007 hPa Calm     90% 12.7 mm
20:59 13.6 °C 11.9 °C 1007 hPa Calm   4.8 km/h 90% 12.7 mm
21:04 13.6 °C 12.1 °C 1007 hPa Calm   4.8 km/h 91% 12.7 mm
21:09 13.7 °C 12.2 °C 1007 hPa SSW 1.6 km/h 8 km/h 91% 12.7 mm
21:14 13.8 °C 12.4 °C 1007.3 hPa SSW 3.2 km/h 8 km/h 91% 12.7 mm
21:19 13.9 °C 12.4 °C 1007.3 hPa Calm   8 km/h 91% 12.7 mm
21:24 13.9 °C 12.4 °C 1007.3 hPa SSW 1.6 km/h 6.4 km/h 91% 12.7 mm
21:29 13.9 °C 12.4 °C 1007.7 hPa SSW 1.6 km/h 6.4 km/h 91% 12.7 mm
21:34 14 °C 12.6 °C 1007.7 hPa Calm   9.7 km/h 91% 12.7 mm
21:39 14.1 °C 12.6 °C 1007.7 hPa SW 1.6 km/h 9.7 km/h 91% 12.7 mm
21:44 14.2 °C 12.7 °C 1007.7 hPa SSW 1.6 km/h 11.3 km/h 91% 12.7 mm
21:49 14.2 °C 12.7 °C 1007.7 hPa SSW 1.6 km/h 11.3 km/h 91% 12.7 mm
21:54 14.1 °C 12.7 °C 1007.7 hPa Calm   4.8 km/h 91% 12.7 mm
21:59 14 °C 12.6 °C 1008 hPa Calm   6.4 km/h 91% 12.7 mm
22:04 13.9 °C 12.5 °C 1008 hPa SSW 1.6 km/h 6.4 km/h 91% 12.7 mm
22:09 13.8 °C 12.4 °C 1008 hPa Calm   6.4 km/h 91% 12.7 mm
22:14 13.8 °C 12.3 °C 1008 hPa Calm   4.8 km/h 91% 12.7 mm
22:19 13.7 °C 12.3 °C 1008.4 hPa SSW 1.6 km/h 8 km/h 91% 12.7 mm
22:24 13.8 °C 12.3 °C 1008.4 hPa SW 3.2 km/h 12.9 km/h 91% 12.7 mm
22:29 13.9 °C 12.5 °C 1008.4 hPa SW 3.2 km/h 12.9 km/h 91% 12.7 mm
22:34 14 °C 12.6 °C 1008.7 hPa WSW 9.7 km/h 14.5 km/h 91% 12.7 mm
22:39 14.1 °C 12.3 °C 1008.7 hPa West 6.4 km/h 17.7 km/h 89% 12.7 mm
22:44 14.1 °C 11.6 °C 1008.7 hPa WNW 12.9 km/h 22.5 km/h 85% 12.7 mm
22:49 14.1 °C 11.1 °C 1009 hPa West 9.7 km/h 24.1 km/h 82% 12.7 mm
22:54 14 °C 10.4 °C 1009 hPa West 8 km/h 24.1 km/h 79% 12.7 mm
22:59 13.7 °C 9.6 °C 1009 hPa West 11.3 km/h 24.1 km/h 76% 12.7 mm
23:04 13.6 °C 9.4 °C 1009.4 hPa West 6.4 km/h 19.3 km/h 76% 12.7 mm
23:09 13.3 °C 8.7 °C 1009.4 hPa West 9.7 km/h 19.3 km/h 74% 12.7 mm
23:14 13.2 °C 8.1 °C 1009.7 hPa West 11.3 km/h 29 km/h 71% 12.7 mm
23:19 13.1 °C 7.3 °C 1009.7 hPa West 11.3 km/h 30.6 km/h 68% 12.7 mm
23:24 13 °C 7.2 °C 1009.7 hPa WNW 11.3 km/h 30.6 km/h 68% 12.7 mm
23:29 12.9 °C 7.2 °C 1010 hPa WSW 4.8 km/h 20.9 km/h 68% 12.7 mm
23:34 12.8 °C 7.2 °C 1010 hPa WSW 6.4 km/h 16.1 km/h 69% 12.7 mm
23:39 12.7 °C 7.1 °C 1010 hPa WSW 9.7 km/h 24.1 km/h 69% 12.7 mm
23:44 12.6 °C 6.9 °C 1010.4 hPa West 16.1 km/h 33.8 km/h 68% 12.7 mm
23:49 12.5 °C 6.8 °C 1010.4 hPa West 8 km/h 33.8 km/h 68% 12.7 mm
23:54 12.1 °C 6.6 °C 1010.4 hPa West 11.3 km/h 27.4 km/h 69% 12.7 mm
23:59 11.9 °C 6.7 °C 1010.7 hPa WSW 8 km/h 27.4 km/h 70% 12.7 mm
Westford Weather
Compliments of Weather Underground

 
 
Current Radar Loop:

Copyright © WestfordWeather.net 2007-2014. All rights reserved.